Station Historical Data
Daily Summary for February 11, 2017 Units:  Metric    English   Both
Next Day »
Daily Weekly Monthly Yearly Custom
  High: Low: Average:
Temperature: 12.2 °C 2.9 °C 7.1 °C
Dew Point: 7.4 °C 1.7 °C 3.9 °C
Humidity: 96% 55% 81%
Wind Speed: 30.6km/h 0km/h 2.4km/h
Wind Gust: 38.6km/h - -
Wind- - ESE
Pressure: 1025.6 hPa 1020.2 hPa -
Precipitation: 0.51 mm    
Historical Graphs
 
 
Tabular Data for February 11, 2017
Time Temperature Dew Point Pressure Wind Wind Speed Wind Gust Humidity Rainfall Rate (Hourly) solar Conditions
00:03 6 °C 5.3 °C 1020.2 hPa Calm   1.6 km/h 95% 1.27 mm 0.00 W/m2
00:08 6 °C 5.3 °C 1020.2 hPa Calm     95% 1.27 mm 0.00 W/m2
00:13 5.9 °C 5.3 °C 1020.2 hPa Calm     96% 1.02 mm 0.00 W/m2
00:18 5.9 °C 5.3 °C 1020.5 hPa Calm   1.6 km/h 96% 0 mm 0.00 W/m2
00:23 5.8 °C 5.2 °C 1020.5 hPa Calm   1.6 km/h 96% 0 mm 0.00 W/m2
00:28 5.8 °C 5.2 °C 1020.5 hPa Calm     96% 0 mm 0.00 W/m2
00:33 5.7 °C 5.1 °C 1020.5 hPa Calm     96% 0 mm 0.00 W/m2
00:38 5.7 °C 5.1 °C 1020.5 hPa SE 1.6 km/h 1.6 km/h 96% 0 mm 0.00 W/m2
00:43 5.7 °C 5.1 °C 1020.5 hPa Calm   1.6 km/h 96% 0 mm 0.00 W/m2
00:48 5.6 °C 5 °C 1020.5 hPa Calm   1.6 km/h 96% 0 mm 0.00 W/m2
00:53 5.6 °C 4.9 °C 1020.5 hPa Calm     96% 0 mm 0.00 W/m2
00:58 5.6 °C 4.9 °C 1020.5 hPa Calm   1.6 km/h 96% 0 mm 0.00 W/m2
01:03 5.6 °C 4.9 °C 1020.5 hPa Calm   1.6 km/h 96% 0 mm 0.00 W/m2
01:08 5.6 °C 4.9 °C 1020.5 hPa ESE 1.6 km/h 1.6 km/h 96% 0 mm 0.00 W/m2
01:13 5.5 °C 4.9 °C 1020.5 hPa ESE 1.6 km/h 1.6 km/h 96% 0 mm 0.00 W/m2
01:18 5.5 °C 4.9 °C 1020.5 hPa Calm   1.6 km/h 96% 0 mm 0.00 W/m2
01:23 5.5 °C 4.9 °C 1020.5 hPa Calm   1.6 km/h 96% 0 mm 0.00 W/m2
01:28 5.4 °C 4.9 °C 1020.5 hPa Calm     96% 0 mm 0.00 W/m2
01:33 5.5 °C 4.9 °C 1020.2 hPa ESE 1.6 km/h 1.6 km/h 96% 0 mm 0.00 W/m2
01:38 5.4 °C 4.7 °C 1020.2 hPa Calm   1.6 km/h 95% 0 mm 0.00 W/m2
01:43 5.4 °C 4.7 °C 1020.2 hPa ESE 6.4 km/h 17.7 km/h 95% 0 mm 0.00 W/m2
01:48 5.3 °C 4.6 °C 1020.2 hPa Calm   1.6 km/h 95% 0 mm 0.00 W/m2
01:53 5.3 °C 4.6 °C 1020.2 hPa Calm   1.6 km/h 95% 0 mm 0.00 W/m2
01:58 5.2 °C 4.6 °C 1020.2 hPa Calm   1.6 km/h 96% 0 mm 0.00 W/m2
02:03 5.2 °C 4.6 °C 1020.5 hPa Calm     96% 0 mm 0.00 W/m2
02:08 5.1 °C 4.6 °C 1020.2 hPa Calm   1.6 km/h 96% 0 mm 0.00 W/m2
02:13 5.1 °C 4.3 °C 1020.2 hPa Calm   1.6 km/h 95% 0 mm 0.00 W/m2
02:18 4.9 °C 4.2 °C 1020.2 hPa Calm   1.6 km/h 95% 0 mm 0.00 W/m2
02:23 4.9 °C 4.3 °C 1020.5 hPa Calm   1.6 km/h 96% 0 mm 0.00 W/m2
02:28 4.8 °C 4.3 °C 1020.5 hPa Calm     96% 0 mm 0.00 W/m2
02:33 4.8 °C 4.2 °C 1020.5 hPa Calm   1.6 km/h 96% 0 mm 0.00 W/m2
02:38 4.7 °C 4 °C 1020.5 hPa Calm   1.6 km/h 95% 0 mm 0.00 W/m2
02:43 4.7 °C 3.9 °C 1020.5 hPa Calm   1.6 km/h 95% 0 mm 0.00 W/m2
02:48 4.6 °C 3.9 °C 1020.5 hPa Calm   1.6 km/h 95% 0 mm 0.00 W/m2
02:53 4.6 °C 3.9 °C 1020.5 hPa Calm   1.6 km/h 95% 0 mm 0.00 W/m2
02:58 4.6 °C 3.9 °C 1020.5 hPa Calm   1.6 km/h 95% 0 mm 0.00 W/m2
03:03 4.6 °C 3.9 °C 1020.9 hPa Calm   1.6 km/h 95% 0 mm 0.00 W/m2
03:08 4.6 °C 3.9 °C 1020.9 hPa Calm   1.6 km/h 95% 0 mm 0.00 W/m2
03:13 4.6 °C 3.9 °C 1020.9 hPa Calm   1.6 km/h 95% 0 mm 0.00 W/m2
03:18 4.6 °C 3.9 °C 1020.9 hPa Calm   1.6 km/h 95% 0 mm 0.00 W/m2
03:23 4.6 °C 3.8 °C 1020.9 hPa Calm     95% 0 mm 0.00 W/m2
03:28 4.6 °C 3.8 °C 1020.9 hPa Calm     95% 0 mm 0.00 W/m2
03:33 4.5 °C 3.8 °C 1020.9 hPa Calm     95% 0 mm 0.00 W/m2
03:39 4.4 °C 3.7 °C 1020.9 hPa Calm     95% 0 mm 0.00 W/m2
03:43 4.4 °C 3.7 °C 1020.9 hPa Calm     95% 0 mm 0.00 W/m2
03:49 4.4 °C 3.7 °C 1020.9 hPa Calm     95% 0 mm 0.00 W/m2
03:54 4.4 °C 3.7 °C 1020.9 hPa Calm     95% 0 mm 0.00 W/m2
03:59 4.4 °C 3.7 °C 1020.9 hPa Calm     95% 0 mm 0.00 W/m2
04:04 4.4 °C 3.7 °C 1020.9 hPa Calm     95% 0 mm 0.00 W/m2
04:09 4.4 °C 3.7 °C 1020.9 hPa Calm     95% 0 mm 0.00 W/m2
04:14 4.3 °C 3.6 °C 1020.9 hPa Calm     95% 0 mm 0.00 W/m2
04:19 4.3 °C 3.6 °C 1020.9 hPa Calm     95% 0 mm 0.00 W/m2
04:24 4.2 °C 3.5 °C 1020.9 hPa Calm     95% 0 mm 0.00 W/m2
04:29 4.2 °C 3.4 °C 1020.9 hPa Calm     95% 0 mm 0.00 W/m2
04:34 4.1 °C 3.3 °C 1020.9 hPa Calm     95% 0 mm 0.00 W/m2
04:39 4 °C 3.3 °C 1020.9 hPa Calm     95% 0 mm 0.00 W/m2
04:44 3.9 °C 3.2 °C 1020.9 hPa Calm     95% 0 mm 0.00 W/m2
04:49 3.8 °C 3.1 °C 1021.2 hPa Calm     95% 0 mm 0.00 W/m2
04:54 3.8 °C 3.1 °C 1021.2 hPa Calm     95% 0 mm 0.00 W/m2
04:59 3.8 °C 3.1 °C 1021.2 hPa Calm     95% 0 mm 0.00 W/m2
05:04 3.8 °C 3.1 °C 1021.2 hPa Calm     95% 0 mm 0.00 W/m2
05:09 3.8 °C 3.1 °C 1021.2 hPa Calm     95% 0 mm 0.00 W/m2
05:14 3.7 °C 3 °C 1021.2 hPa Calm     95% 0 mm 0.00 W/m2
05:19 3.7 °C 3 °C 1021.2 hPa Calm     95% 0 mm 0.00 W/m2
05:24 3.8 °C 3.1 °C 1021.2 hPa Calm     95% 0 mm 0.00 W/m2
05:29 3.8 °C 3.1 °C 1021.6 hPa Calm     95% 0 mm 0.00 W/m2
05:34 3.8 °C 3.1 °C 1021.6 hPa Calm     95% 0 mm 0.00 W/m2
05:39 3.9 °C 3.2 °C 1021.6 hPa Calm     95% 0 mm 0.00 W/m2
05:44 3.9 °C 3.2 °C 1021.6 hPa Calm     95% 0 mm 0.00 W/m2
05:49 3.9 °C 3.2 °C 1021.6 hPa Calm     95% 0 mm 0.00 W/m2
05:54 3.9 °C 3.2 °C 1021.9 hPa Calm     95% 0 mm 0.00 W/m2
05:59 3.9 °C 3.2 °C 1021.9 hPa NE 1.6 km/h 1.6 km/h 95% 0 mm 0.00 W/m2
06:04 3.9 °C 3.2 °C 1022.2 hPa NNE 1.6 km/h 3.2 km/h 95% 0 mm 0.00 W/m2
06:09 3.9 °C 3.2 °C 1022.2 hPa Calm   1.6 km/h 95% 0 mm 0.00 W/m2
06:14 3.9 °C 3.2 °C 1021.9 hPa Calm   1.6 km/h 95% 0 mm 0.00 W/m2
06:19 3.8 °C 3.1 °C 1021.9 hPa Calm     95% 0 mm 0.00 W/m2
06:24 3.8 °C 3.1 °C 1022.2 hPa Calm   1.6 km/h 95% 0 mm 0.00 W/m2
06:29 3.8 °C 3.1 °C 1021.9 hPa Calm   1.6 km/h 95% 0 mm 0.00 W/m2
06:34 3.7 °C 2.9 °C 1022.2 hPa Calm   1.6 km/h 95% 0 mm 0.00 W/m2
06:39 3.6 °C 2.9 °C 1022.2 hPa Calm   1.6 km/h 95% 0 mm 0.00 W/m2
06:44 3.6 °C 2.8 °C 1022.2 hPa Calm     95% 0 mm 0.00 W/m2
06:49 3.5 °C 2.8 °C 1022.2 hPa Calm     95% 0 mm 0.00 W/m2
06:54 3.4 °C 2.7 °C 1022.2 hPa Calm     95% 0 mm 0.00 W/m2
06:59 3.3 °C 2.6 °C 1022.6 hPa Calm     95% 0 mm 5.00 W/m2
07:04 3.2 °C 2.4 °C 1022.2 hPa Calm     95% 0 mm 7.00 W/m2
07:09 3.1 °C 2.3 °C 1022.2 hPa Calm     95% 0 mm 11.00 W/m2
07:14 3 °C 2.3 °C 1022.2 hPa Calm     95% 0 mm 14.00 W/m2
07:19 2.9 °C 2.2 °C 1022.6 hPa Calm     95% 0 mm 16.00 W/m2
07:24 2.9 °C 2.2 °C 1022.6 hPa Calm     95% 0 mm 23.00 W/m2
07:29 2.9 °C 2.2 °C 1022.6 hPa Calm     95% 0 mm 35.00 W/m2
07:35 2.9 °C 2.2 °C 1022.6 hPa Calm     95% 0 mm 47.00 W/m2
07:40 2.9 °C 2.2 °C 1022.6 hPa Calm     95% 0 mm 63.00 W/m2
07:45 2.9 °C 2.2 °C 1022.6 hPa Calm     95% 0 mm 79.00 W/m2
07:50 2.9 °C 2.2 °C 1022.6 hPa North 3.2 km/h 4.8 km/h 95% 0 mm 97.00 W/m2
07:55 2.9 °C 2.2 °C 1022.9 hPa Calm   4.8 km/h 95% 0 mm 114.00 W/m2
08:00 3 °C 2.3 °C 1022.6 hPa Calm   1.6 km/h 95% 0 mm 132.00 W/m2
08:05 3.1 °C 2.3 °C 1022.9 hPa Calm     95% 0 mm 155.00 W/m2
08:10 3.2 °C 2.4 °C 1022.9 hPa Calm     95% 0 mm 176.00 W/m2
08:15 3.2 °C 2.4 °C 1022.9 hPa Calm   1.6 km/h 95% 0 mm 193.00 W/m2
08:20 3.2 °C 2.5 °C 1022.9 hPa Calm   3.2 km/h 95% 0 mm 214.00 W/m2
08:25 3.3 °C 2.6 °C 1022.6 hPa North 3.2 km/h 8 km/h 95% 0 mm 236.00 W/m2
08:30 3.4 °C 2.7 °C 1022.6 hPa NNE 1.6 km/h 8 km/h 95% 0 mm 258.00 W/m2
08:35 3.6 °C 2.8 °C 1022.6 hPa Calm   6.4 km/h 95% 0 mm 278.00 W/m2
08:40 3.7 °C 3 °C 1022.6 hPa NNE 3.2 km/h 4.8 km/h 95% 0 mm 297.00 W/m2
08:45 3.9 °C 3.2 °C 1022.9 hPa NNE 1.6 km/h 4.8 km/h 95% 0 mm 316.00 W/m2
08:50 4.1 °C 3.3 °C 1022.9 hPa NNE 1.6 km/h 4.8 km/h 95% 0 mm 334.00 W/m2
08:55 4.1 °C 3.4 °C 1022.9 hPa Calm     95% 0 mm 350.00 W/m2
09:00 4.3 °C 3.6 °C 1022.6 hPa Calm   4.8 km/h 95% 0 mm 367.00 W/m2
09:05 4.4 °C 3.7 °C 1022.6 hPa Calm   3.2 km/h 95% 0 mm 381.00 W/m2
09:11 4.6 °C 3.8 °C 1022.6 hPa Calm     95% 0 mm 396.00 W/m2
09:16 4.7 °C 3.9 °C 1022.6 hPa NNE 3.2 km/h 3.2 km/h 95% 0 mm 408.00 W/m2
09:21 4.8 °C 4.1 °C 1022.9 hPa Calm   3.2 km/h 95% 0 mm 422.00 W/m2
09:26 4.9 °C 4.2 °C 1022.9 hPa Calm     95% 0 mm 436.00 W/m2
09:31 5.1 °C 4.3 °C 1022.9 hPa Calm     95% 0 mm 450.00 W/m2
09:36 5.3 °C 4.6 °C 1022.9 hPa Calm     95% 0 mm 462.00 W/m2
09:41 5.7 °C 5.1 °C 1022.9 hPa Calm     96% 0 mm 475.00 W/m2
09:46 5.9 °C 5.3 °C 1022.9 hPa Calm   3.2 km/h 96% 0 mm 487.00 W/m2
09:51 6 °C 5.4 °C 1022.9 hPa Calm   4.8 km/h 96% 0 mm 497.00 W/m2
09:56 6.1 °C 5.5 °C 1023.2 hPa Calm   4.8 km/h 96% 0 mm 508.00 W/m2
10:01 6.2 °C 5.6 °C 1023.2 hPa Calm   6.4 km/h 96% 0 mm 517.00 W/m2
10:06 6.3 °C 5.6 °C 1023.2 hPa NNE 3.2 km/h 4.8 km/h 95% 0 mm 529.00 W/m2
10:11 6.3 °C 5.6 °C 1023.6 hPa NNE 3.2 km/h 6.4 km/h 95% 0 mm 538.00 W/m2
10:16 6.3 °C 5.6 °C 1023.6 hPa NNE 1.6 km/h 4.8 km/h 95% 0 mm 550.00 W/m2
10:21 6.3 °C 5.6 °C 1023.6 hPa NNE 1.6 km/h 3.2 km/h 95% 0 mm 557.00 W/m2
10:26 6.3 °C 5.6 °C 1023.6 hPa NNE 1.6 km/h 1.6 km/h 95% 0 mm 566.00 W/m2
10:31 6.4 °C 5.8 °C 1023.6 hPa Calm   3.2 km/h 96% 0 mm 577.00 W/m2
10:36 6.8 °C 6.2 °C 1023.6 hPa Calm   8 km/h 96% 0 mm 582.00 W/m2
10:41 6.8 °C 6.2 °C 1023.6 hPa NNE 6.4 km/h 6.4 km/h 96% 0 mm 591.00 W/m2
10:46 7 °C 6.3 °C 1023.6 hPa NNE 4.8 km/h 6.4 km/h 95% 0 mm 599.00 W/m2
10:51 7.3 °C 6.6 °C 1023.6 hPa North 6.4 km/h 9.7 km/h 95% 0 mm 605.00 W/m2
10:56 7.7 °C 6.8 °C 1023.6 hPa Calm   1.6 km/h 94% 0 mm 613.00 W/m2
11:01 7.9 °C 7.1 °C 1023.6 hPa North 4.8 km/h 6.4 km/h 94% 0 mm 619.00 W/m2
11:06 8.1 °C 6.9 °C 1023.6 hPa North 3.2 km/h 6.4 km/h 92% 0 mm 626.00 W/m2
11:11 8.4 °C 7.4 °C 1023.6 hPa North 9.7 km/h 9.7 km/h 93% 0 mm 631.00 W/m2
11:16 8.4 °C 7.1 °C 1023.6 hPa NNW 6.4 km/h 6.4 km/h 91% 0 mm 638.00 W/m2
11:21 8.7 °C 7.1 °C 1023.6 hPa NNW 9.7 km/h 11.3 km/h 90% 0 mm 642.00 W/m2
11:26 8.7 °C 6.5 °C 1023.6 hPa NNW 9.7 km/h 11.3 km/h 86% 0 mm 645.00 W/m2
11:31 8.9 °C 6 °C 1023.6 hPa Calm   1.6 km/h 82% 0 mm 650.00 W/m2
11:36 9.1 °C 6.6 °C 1023.6 hPa NNW 3.2 km/h 4.8 km/h 84% 0 mm 652.00 W/m2
11:41 9.3 °C 6.6 °C 1023.6 hPa NNW 4.8 km/h 4.8 km/h 83% 0 mm 656.00 W/m2
11:46 9.3 °C 6.2 °C 1023.6 hPa Calm   3.2 km/h 81% 0 mm 657.00 W/m2
11:51 9.6 °C 6.1 °C 1023.6 hPa NNW 1.6 km/h 3.2 km/h 79% 0 mm 661.00 W/m2
11:56 9.8 °C 5.9 °C 1023.2 hPa NW 3.2 km/h 4.8 km/h 77% 0 mm 661.00 W/m2
12:01 9.9 °C 6.4 °C 1023.2 hPa Calm     79% 0 mm 661.00 W/m2
12:06 9.9 °C 6.5 °C 1023.2 hPa NW 1.6 km/h 3.2 km/h 79% 0 mm 664.00 W/m2
12:11 10 °C 6.3 °C 1023.2 hPa Calm   3.2 km/h 78% 0 mm 663.00 W/m2
12:16 10.1 °C 5.8 °C 1023.2 hPa WNW 1.6 km/h 1.6 km/h 75% 0 mm 664.00 W/m2
12:21 10.2 °C 6.4 °C 1023.2 hPa WNW 1.6 km/h 3.2 km/h 77% 0 mm 664.00 W/m2
12:26 10.4 °C 6.2 °C 1023.2 hPa WNW 4.8 km/h 4.8 km/h 75% 0 mm 663.00 W/m2
12:32 10.6 °C 5.8 °C 1023.2 hPa Calm   1.6 km/h 72% 0 mm 661.00 W/m2
12:37 10.8 °C 5.7 °C 1023.2 hPa Calm     71% 0 mm 659.00 W/m2
12:42 10.9 °C 6.9 °C 1023.2 hPa NW 1.6 km/h 3.2 km/h 76% 0 mm 657.00 W/m2
12:47 11.1 °C 7.2 °C 1023.2 hPa Calm   1.6 km/h 77% 0 mm 654.00 W/m2
12:52 11.2 °C 6.9 °C 1023.2 hPa ESE 9.7 km/h 17.7 km/h 75% 0 mm 652.00 W/m2
12:57 11.3 °C 5.4 °C 1023.2 hPa ESE 6.4 km/h 8 km/h 67% 0 mm 649.00 W/m2
13:02 11.3 °C 5 °C 1023.2 hPa ESE 8 km/h 11.3 km/h 65% 0 mm 647.00 W/m2
13:07 11.4 °C 5.1 °C 1023.2 hPa ESE 1.6 km/h 19.3 km/h 65% 0 mm 642.00 W/m2
13:12 11.4 °C 4.7 °C 1023.2 hPa Calm   8 km/h 63% 0 mm 636.00 W/m2
13:17 11.6 °C 5.8 °C 1023.2 hPa ESE 6.4 km/h 9.7 km/h 68% 0 mm 631.00 W/m2
13:22 11.6 °C 5.1 °C 1023.2 hPa Calm   1.6 km/h 64% 0 mm 629.00 W/m2
13:27 11.7 °C 5.7 °C 1023.2 hPa Calm   3.2 km/h 67% 0 mm 622.00 W/m2
13:32 11.8 °C 5.4 °C 1023.2 hPa East 1.6 km/h 4.8 km/h 65% 0 mm 615.00 W/m2
13:37 11.8 °C 5.4 °C 1023.2 hPa Calm   3.2 km/h 65% 0 mm 612.00 W/m2
13:42 11.9 °C 5.5 °C 1023.2 hPa SE 6.4 km/h 17.7 km/h 65% 0 mm 601.00 W/m2
13:47 11.9 °C 5.1 °C 1022.9 hPa Calm   3.2 km/h 63% 0 mm 594.00 W/m2
13:52 11.9 °C 5.1 °C 1023.2 hPa NE 3.2 km/h 6.4 km/h 63% 0 mm 587.00 W/m2
13:57 12 °C 6.5 °C 1023.2 hPa East 11.3 km/h 20.9 km/h 69% 0 mm 580.00 W/m2
14:02 12 °C 5.8 °C 1023.2 hPa East 6.4 km/h 8 km/h 66% 0 mm 570.00 W/m2
14:07 12 °C 3.2 °C 1023.2 hPa ESE 1.6 km/h 8 km/h 55% 0 mm 563.00 W/m2
14:12 12.1 °C 4.3 °C 1023.2 hPa Calm   4.8 km/h 59% 0 mm 552.00 W/m2
14:17 12.2 °C 5.6 °C 1023.2 hPa Calm   8 km/h 64% 0 mm 541.00 W/m2
14:22 12.1 °C 4.8 °C 1023.2 hPa ENE 3.2 km/h 11.3 km/h 61% 0 mm 531.00 W/m2
14:27 12.1 °C 4.8 °C 1023.6 hPa SE 12.9 km/h 20.9 km/h 61% 0 mm 519.00 W/m2
14:32 12.1 °C 4.1 °C 1023.2 hPa ESE 1.6 km/h 3.2 km/h 58% 0 mm 510.00 W/m2
14:37 12.1 °C 3.3 °C 1023.2 hPa East 9.7 km/h 19.3 km/h 55% 0 mm 499.00 W/m2
14:42 12.1 °C 3.6 °C 1023.6 hPa Calm   1.6 km/h 56% 0 mm 485.00 W/m2
14:47 12.2 °C 4.4 °C 1023.6 hPa ESE 1.6 km/h 12.9 km/h 59% 0 mm 476.00 W/m2
14:52 12.2 °C 5.8 °C 1023.6 hPa Calm   1.6 km/h 65% 0 mm 462.00 W/m2
14:57 12.1 °C 5.7 °C 1023.6 hPa East 4.8 km/h 8 km/h 65% 0 mm 450.00 W/m2
15:02 11.9 °C 4.9 °C 1023.6 hPa East 12.9 km/h 33.8 km/h 62% 0 mm 443.00 W/m2
15:07 11.8 °C 4.1 °C 1023.6 hPa SE 1.6 km/h 22.5 km/h 59% 0 mm 422.00 W/m2
15:12 11.9 °C 4.6 °C 1023.6 hPa East 3.2 km/h 11.3 km/h 61% 0 mm 408.00 W/m2
15:17 11.8 °C 4.6 °C 1023.9 hPa East 17.7 km/h 20.9 km/h 61% 0 mm 397.00 W/m2
15:22 11.8 °C 4.7 °C 1023.9 hPa Calm   8 km/h 62% 0 mm 380.00 W/m2
15:27 11.7 °C 4.6 °C 1023.9 hPa ENE 9.7 km/h 19.3 km/h 62% 0 mm 369.00 W/m2
15:32 11.6 °C 4.1 °C 1023.9 hPa East 1.6 km/h 25.7 km/h 60% 0 mm 355.00 W/m2
15:37 11.6 °C 4.8 °C 1023.9 hPa Calm   22.5 km/h 63% 0 mm 339.00 W/m2
15:42 11.5 °C 3.3 °C 1023.9 hPa Calm   19.3 km/h 57% 0 mm 327.00 W/m2
15:47 11.5 °C 4 °C 1023.9 hPa ENE 1.6 km/h 37 km/h 60% 0 mm 309.00 W/m2
15:52 11.4 °C 3 °C 1023.9 hPa East 8 km/h 11.3 km/h 56% 0 mm 294.00 W/m2
15:57 11.4 °C 3.4 °C 1023.9 hPa East 12.9 km/h 24.1 km/h 58% 0 mm 278.00 W/m2
16:02 11.4 °C 3.2 °C 1023.9 hPa NE 9.7 km/h 29 km/h 57% 0 mm 265.00 W/m2
16:07 11.4 °C 3.5 °C 1023.9 hPa Calm   24.1 km/h 58% 0 mm 246.00 W/m2
16:12 11.4 °C 3.9 °C 1023.9 hPa Calm   35.4 km/h 60% 0 mm 241.00 W/m2
16:17 11.3 °C 3.6 °C 1023.9 hPa SE 14.5 km/h 35.4 km/h 59% 0 mm 213.00 W/m2
16:22 11.3 °C 3.6 °C 1023.9 hPa East 6.4 km/h 20.9 km/h 59% 0 mm 188.00 W/m2
16:27 11.2 °C 4 °C 1023.9 hPa ESE 17.7 km/h 22.5 km/h 61% 0 mm 171.00 W/m2
16:32 11.1 °C 3.4 °C 1023.9 hPa East 11.3 km/h 19.3 km/h 59% 0 mm 146.00 W/m2
16:37 11.1 °C 3.8 °C 1023.6 hPa East 3.2 km/h 20.9 km/h 61% 0 mm 127.00 W/m2
16:42 11 °C 4 °C 1023.6 hPa ENE 3.2 km/h 24.1 km/h 62% 0 mm 111.00 W/m2
16:47 10.9 °C 4.2 °C 1023.6 hPa Calm   19.3 km/h 63% 0 mm 95.00 W/m2
16:52 10.8 °C 4.5 °C 1023.6 hPa East 16.1 km/h 25.7 km/h 65% 0 mm 76.00 W/m2
16:57 10.8 °C 3.6 °C 1023.2 hPa East 20.9 km/h 22.5 km/h 61% 0 mm 62.00 W/m2
17:02 10.7 °C 3.5 °C 1023.2 hPa East 16.1 km/h 27.4 km/h 61% 0 mm 47.00 W/m2
17:07 10.7 °C 3.9 °C 1023.2 hPa East 12.9 km/h 22.5 km/h 63% 0 mm 35.00 W/m2
17:12 10.6 °C 3.8 °C 1023.2 hPa East 11.3 km/h 29 km/h 63% 0 mm 26.00 W/m2
17:17 10.4 °C 4.6 °C 1023.2 hPa East 30.6 km/h 30.6 km/h 67% 0 mm 18.00 W/m2
17:23 10.2 °C 3.7 °C 1023.2 hPa ENE 1.6 km/h 17.7 km/h 64% 0 mm 14.00 W/m2
17:28 10 °C 3.3 °C 1023.6 hPa Calm   1.6 km/h 63% 0 mm 12.00 W/m2
17:33 9.8 °C 4 °C 1023.2 hPa Calm     67% 0 mm 9.00 W/m2
17:38 9.6 °C 4.4 °C 1023.6 hPa Calm   22.5 km/h 70% 0 mm 7.00 W/m2
17:43 9.4 °C 4 °C 1023.6 hPa Calm     69% 0 mm 0.00 W/m2
17:48 9.2 °C 3.8 °C 1023.6 hPa Calm     69% 0 mm 0.00 W/m2
17:53 9.1 °C 4.3 °C 1023.9 hPa Calm     72% 0 mm 0.00 W/m2
17:58 8.8 °C 4.1 °C 1023.9 hPa Calm   1.6 km/h 72% 0 mm 0.00 W/m2
18:03 8.6 °C 3.7 °C 1023.9 hPa Calm     71% 0 mm 0.00 W/m2
18:08 8.4 °C 3.1 °C 1023.9 hPa Calm     69% 0 mm 0.00 W/m2
18:13 8.3 °C 2.3 °C 1023.9 hPa NE 1.6 km/h 1.6 km/h 66% 0 mm 0.00 W/m2
18:18 8.3 °C 2.7 °C 1024.3 hPa Calm     68% 0 mm 0.00 W/m2
18:23 8.3 °C 2.3 °C 1024.3 hPa Calm   1.6 km/h 66% 0 mm 0.00 W/m2
18:28 8.2 °C 2.1 °C 1024.3 hPa Calm     65% 0 mm 0.00 W/m2
18:33 8.2 °C 2.2 °C 1024.3 hPa Calm   1.6 km/h 66% 0 mm 0.00 W/m2
18:38 8.2 °C 2.1 °C 1024.3 hPa Calm   1.6 km/h 65% 0 mm 0.00 W/m2
18:43 8.2 °C 2.6 °C 1024.3 hPa Calm   1.6 km/h 68% 0 mm 0.00 W/m2
18:48 8.1 °C 2.5 °C 1024.3 hPa Calm   1.6 km/h 68% 0 mm 0.00 W/m2
18:53 8 °C 2.7 °C 1024.6 hPa Calm     69% 0 mm 0.00 W/m2
18:58 7.9 °C 1.9 °C 1024.6 hPa North 1.6 km/h 1.6 km/h 66% 0 mm 0.00 W/m2
19:03 7.8 °C 2.7 °C 1024.6 hPa Calm     70% 0 mm 0.00 W/m2
19:08 7.8 °C 2.8 °C 1024.6 hPa Calm     71% 0 mm 0.00 W/m2
19:13 7.7 °C 2.3 °C 1024.6 hPa Calm     69% 0 mm 0.00 W/m2
19:18 7.6 °C 2.1 °C 1024.6 hPa Calm     68% 0 mm 0.00 W/m2
19:23 7.6 °C 2.9 °C 1024.6 hPa Calm     72% 0 mm 0.00 W/m2
19:28 7.5 °C 3 °C 1024.3 hPa Calm     73% 0 mm 0.00 W/m2
19:33 7.4 °C 2.7 °C 1024.3 hPa Calm     72% 0 mm 0.00 W/m2
19:38 7.3 °C 2.8 °C 1024.3 hPa Calm   1.6 km/h 73% 0 mm 0.00 W/m2
19:43 7.3 °C 3.2 °C 1024.6 hPa Calm   1.6 km/h 75% 0 mm 0.00 W/m2
19:48 7.2 °C 3.3 °C 1024.6 hPa Calm   1.6 km/h 76% 0 mm 0.00 W/m2
19:53 7 °C 2.5 °C 1024.6 hPa Calm     73% 0 mm 0.00 W/m2
19:58 6.9 °C 2.6 °C 1024.6 hPa Calm   1.6 km/h 74% 0 mm 0.00 W/m2
20:03 6.8 °C 2.5 °C 1024.6 hPa Calm   1.6 km/h 74% 0 mm 0.00 W/m2
20:08 6.8 °C 2.8 °C 1024.6 hPa Calm     76% 0 mm 0.00 W/m2
20:13 6.7 °C 2.2 °C 1024.6 hPa Calm     73% 0 mm 0.00 W/m2
20:18 6.8 °C 2.3 °C 1024.6 hPa Calm   1.6 km/h 73% 0 mm 0.00 W/m2
20:23 6.9 °C 3.2 °C 1024.6 hPa Calm     77% 0 mm 0.00 W/m2
20:28 6.8 °C 2.5 °C 1024.9 hPa Calm     74% 0 mm 0.00 W/m2
20:33 6.8 °C 2.7 °C 1024.9 hPa Calm     75% 0 mm 0.00 W/m2
20:38 6.7 °C 2.4 °C 1024.9 hPa Calm     74% 0 mm 0.00 W/m2
20:43 6.7 °C 2.2 °C 1024.9 hPa Calm     73% 0 mm 0.00 W/m2
20:49 6.7 °C 2 °C 1025.3 hPa Calm   1.6 km/h 72% 0 mm 0.00 W/m2
20:54 6.7 °C 2 °C 1025.3 hPa Calm   1.6 km/h 72% 0 mm 0.00 W/m2
20:59 6.7 °C 2.2 °C 1025.3 hPa Calm   1.6 km/h 73% 0 mm 0.00 W/m2
21:04 6.6 °C 2.4 °C 1025.3 hPa Calm   1.6 km/h 75% 0 mm 0.00 W/m2
21:09 6.4 °C 2.5 °C 1024.9 hPa Calm   1.6 km/h 76% 0 mm 0.00 W/m2
21:14 6.4 °C 2.9 °C 1024.9 hPa Calm   1.6 km/h 78% 0 mm 0.00 W/m2
21:24 6.3 °C 2.6 °C 1025.3 hPa Calm   1.6 km/h 77% 0 mm 0.00 W/m2
21:29 6.3 °C 2.2 °C 1024.9 hPa ESE 3.2 km/h 22.5 km/h 75% 0 mm 0.00 W/m2
21:34 6.3 °C 1.8 °C 1025.3 hPa SE 1.6 km/h 1.6 km/h 73% 0 mm 0.00 W/m2
21:39 6.4 °C 2.3 °C 1025.3 hPa SE 19.3 km/h 25.7 km/h 75% 0 mm 0.00 W/m2
21:44 6.5 °C 2.4 °C 1025.3 hPa SE 16.1 km/h 27.4 km/h 75% 0 mm 0.00 W/m2
21:49 6.5 °C 2.6 °C 1025.3 hPa Calm   14.5 km/h 76% 0 mm 0.00 W/m2
21:54 6.6 °C 2.4 °C 1025.3 hPa ESE 1.6 km/h 30.6 km/h 75% 0 mm 0.00 W/m2
21:59 6.6 °C 2.3 °C 1025.6 hPa Calm   1.6 km/h 74% 0 mm 0.00 W/m2
22:04 6.7 °C 2.7 °C 1025.3 hPa Calm   11.3 km/h 76% 0 mm 0.00 W/m2
22:09 6.7 °C 3.1 °C 1025.3 hPa Calm   17.7 km/h 78% 0 mm 0.00 W/m2
22:14 6.6 °C 2.7 °C 1025.3 hPa Calm   19.3 km/h 76% 0 mm 0.00 W/m2
22:19 6.6 °C 2.6 °C 1024.9 hPa ESE 12.9 km/h 19.3 km/h 76% 0 mm 0.00 W/m2
22:24 6.6 °C 2.5 °C 1024.9 hPa East 27.4 km/h 33.8 km/h 75% 0 mm 0.00 W/m2
22:29 6.7 °C 2.1 °C 1024.9 hPa ENE 8 km/h 37 km/h 72% 0 mm 0.00 W/m2
22:34 7 °C 3.1 °C 1024.9 hPa Calm   37 km/h 76% 0 mm 0.00 W/m2
22:39 7.2 °C 2.3 °C 1024.9 hPa East 8 km/h 38.6 km/h 71% 0 mm 0.00 W/m2
22:45 7.3 °C 2.1 °C 1024.9 hPa East 27.4 km/h 33.8 km/h 69% 0 mm 0.00 W/m2
22:50 7.5 °C 1.8 °C 1025.3 hPa Calm   17.7 km/h 67% 0 mm 0.00 W/m2
22:55 7.6 °C 2.5 °C 1025.3 hPa ESE 12.9 km/h 22.5 km/h 70% 0 mm 0.00 W/m2
23:00 7.7 °C 2.8 °C 1025.6 hPa Calm   25.7 km/h 71% 0 mm 0.00 W/m2
23:05 7.6 °C 2.9 °C 1025.6 hPa East 17.7 km/h 17.7 km/h 72% 0 mm 0.00 W/m2
23:10 7.6 °C 2.7 °C 1025.6 hPa ESE 1.6 km/h 19.3 km/h 71% 0 mm 0.00 W/m2
23:15 7.4 °C 2.6 °C 1025.6 hPa Calm   25.7 km/h 71% 0 mm 0.00 W/m2
23:20 7.3 °C 2.2 °C 1025.6 hPa ESE 12.9 km/h 30.6 km/h 70% 0 mm 0.00 W/m2
23:25 7.3 °C 1.9 °C 1025.6 hPa East 9.7 km/h 24.1 km/h 69% 0 mm 0.00 W/m2
23:30 7.3 °C 2.4 °C 1025.3 hPa East 12.9 km/h 27.4 km/h 71% 0 mm 0.00 W/m2
23:35 7.2 °C 2.1 °C 1025.3 hPa ENE 24.1 km/h 35.4 km/h 70% 0 mm 0.00 W/m2
23:40 7.2 °C 2.3 °C 1025.3 hPa East 14.5 km/h 25.7 km/h 71% 0 mm 0.00 W/m2
23:45 7.1 °C 1.9 °C 1025.3 hPa Calm   20.9 km/h 70% 0 mm 0.00 W/m2
23:50 7 °C 1.7 °C 1025.3 hPa Calm   24.1 km/h 69% 0 mm 0.00 W/m2
23:55 7 °C 1.7 °C 1025.3 hPa ENE 3.2 km/h 32.2 km/h 69% 0 mm 0.00 W/m2
Foresthill Weather
 WU-history PHP script courtesy of   Juneau County Weather.
powered by Cumulus v1.9.3 (1059)
Ambient Weather VWS v14.00
Top Contact Website Map Copyright © 2007 - 2018 Foresthillweather.com Never base important decisions on this or any weather information obtained from the Internet